Mahnomen, MN

10:10 PM CDT on August 20, 2014 (GMT -0500)
Fosston Municipal | Change Station
CLOSE
Current Station
Airport
Location: Fosston,
Elevation: 1276 ft
Nearby Weather Stations

Elev 1276 ft 47.59 °N, 95.77 °W | Updated 15 minutes ago

Clear
Clear
66 °F
Feels Like 66 °F
N
8
Wind Variable Wind from ESE

Today
High -- | Low -- °F
--% Chance of Precip.
Yesterday
High -- | Low -- °F
Precip. -- in
6:26 AM 8:26 PM
Waning Crescent, 17% visible
Pressure 29.84 in
Visibility 10.0 miles
Clouds Clear
Dew Point 61 °F
Humidity 83%
Rainfall 0.00 in
Snow Depth Not available.
UV 0 out of 12
Pollen 10.70 out of 12
Air Quality Not available.
Flu Activity Not available.
METAR KFSE 210255Z AUTO 12007KT 10SM CLR 19/16 A2984 RMK AO2

More Conditions Fewer Conditions

Pressure 29.84 in
Visibility 10.0 miles
Clouds Clear
Dew Point 61 °F
Humidity 83%
Rainfall 0.00 in
Snow Depth Not available.
UV 0 out of 12
Pollen 10.70 out of 12
Air Quality Not available.
Flu Activity Not available.
METAR KFSE 210255Z AUTO 12007KT 10SM CLR 19/16 A2984 RMK AO2

More Conditions Fewer Conditions

10-Day Weather Forecast

Almanac

Astronomy

Aug. 20, 2014 Rise Set
Actual Time 6:26 AM CDT 8:26 PM CDT
Civil Twilight 5:53 AM CDT 8:59 PM CDT
Nautical Twilight 5:12 AM CDT 9:39 PM CDT
Astronomical Twilight 4:27 AM CDT 10:24 PM CDT
Moon 2:00 AM CDT (8/20) 5:19 PM CDT (8/20)
Length of Visible Light 15h 05m
Length of Day
13h 59m
Tomorrow will be 3m 8s shorter.
Waning Crescent, 17% of the Moon is Illuminated
Today
Waning Crescent
Aug 25
New
Sep 2
First Quarter
Sep 8
Full
Sep 15
Last Quarter

Today's Extremes

State Highs State Lows

Community

WunderPhotos

Upload Photos

1,745,842 photos uploaded!

WunderBlogs® & News

By Dr. Jeff Masters
Director of Meteorology, Weather Underground
By Kari Strenfel
Meteorologist, Weather Underground
By Christopher C. Burt
Weather Historian, Weather Underground
August 20, 2014
August 20, 2014
August 20, 2014

Nearby

Snow Depth

Station Depth Elevation
No new snow has been reported.

Earthquake Activity

City Distance Mag. Time & Date
No recent earthquake activity has been reported nearby.
Minimum magnitude displayed is 2.5.

Coastal Water Temperatures

Place Temperature
No Stations Reporting

Nearby Weather Stations